Time;durP1;ratioP1;P1;durP2;ratioP2;P2;SDS_P1;SDS_P2;PMS_P1;PMS_P2;Temp;Humidity;BMP_temperature;BMP_pressure;BME280_temperature;BME280_humidity;BME280_pressure;Samples;Min_cycle;Max_cycle;Signal;HPM_P1;HPM_P2
2021/06/12 00:00:50;;;;;;;6.82;5.15;;;18.60;99.90;;;;;;5084320;28;20402;-71
2021/06/12 00:03:54;;;;;;;7.78;5.07;;;18.60;99.90;;;;;;5084250;28;20043;-71
2021/06/12 00:06:59;;;;;;;7.82;4.85;;;18.60;99.90;;;;;;5087751;28;20051;-71
2021/06/12 00:10:08;;;;;;;7.68;5.22;;;18.60;99.90;;;;;;5086505;28;20501;-72
2021/06/12 00:13:12;;;;;;;8.82;5.43;;;18.60;99.90;;;;;;5082212;28;20285;-71
2021/06/12 00:16:18;;;;;;;10.25;5.60;;;18.50;99.90;;;;;;5068983;28;20047;-71
2021/06/12 00:19:23;;;;;;;10.40;5.88;;;18.50;99.90;;;;;;5069056;28;20052;-71
2021/06/12 00:22:27;;;;;;;7.43;6.05;;;18.50;99.90;;;;;;5079334;28;20052;-71
2021/06/12 00:25:32;;;;;;;8.55;5.47;;;18.40;99.90;;;;;;5076205;28;20486;-71
2021/06/12 00:28:37;;;;;;;5.72;5.07;;;18.30;99.90;;;;;;5083274;28;20051;-71
2021/06/12 00:31:47;;;;;;;9.90;5.88;;;18.30;99.90;;;;;;5075725;28;20044;-71
2021/06/12 00:34:51;;;;;;;7.55;5.95;;;18.20;99.90;;;;;;5072196;28;20047;-71
2021/06/12 00:37:56;;;;;;;7.35;6.03;;;18.10;99.90;;;;;;5088484;28;20395;-71
2021/06/12 00:41:01;;;;;;;8.80;5.63;;;18.00;99.90;;;;;;5087129;28;20051;-71
2021/06/12 00:44:06;;;;;;;11.02;7.10;;;17.90;99.90;;;;;;5087884;28;20062;-72
2021/06/12 00:47:10;;;;;;;8.35;6.10;;;17.90;99.90;;;;;;5088385;28;20051;-71
2021/06/12 00:50:16;;;;;;;10.32;6.43;;;17.80;99.90;;;;;;5072388;28;20049;-71
2021/06/12 00:53:36;;;;;;;9.40;6.85;;;17.80;99.90;;;;;;5073952;28;20043;-71
2021/06/12 00:56:40;;;;;;;11.93;6.40;;;17.70;99.90;;;;;;5092342;28;20489;-71
2021/06/12 00:59:45;;;;;;;8.63;6.22;;;17.80;99.90;;;;;;5086672;28;20336;-71
2021/06/12 01:02:50;;;;;;;7.40;6.18;;;17.80;99.90;;;;;;5091689;28;20065;-71
2021/06/12 01:05:57;;;;;;;9.15;5.72;;;17.80;99.90;;;;;;5090249;28;20039;-71
2021/06/12 01:09:01;;;;;;;7.88;6.28;;;17.70;99.90;;;;;;5071608;28;20575;-72
2021/06/12 01:12:25;;;;;;;8.23;5.70;;;17.70;99.90;;;;;;5083449;28;20063;-72
2021/06/12 01:15:52;;;;;;;11.65;6.10;;;17.70;99.90;;;;;;5075334;28;20048;-72
2021/06/12 01:19:09;;;;;;;9.10;6.18;;;17.70;99.90;;;;;;5071686;28;20051;-71
2021/06/12 01:22:21;;;;;;;9.35;6.13;;;17.70;99.90;;;;;;5071285;28;20330;-71
2021/06/12 01:25:56;;;;;;;8.45;6.15;;;17.70;99.90;;;;;;5074612;28;20522;-72
2021/06/12 01:29:26;;;;;;;9.93;6.55;;;17.70;99.90;;;;;;5070858;28;20055;-71
2021/06/12 01:32:37;;;;;;;7.20;5.60;;;17.70;99.90;;;;;;5072436;28;20036;-71
2021/06/12 01:35:45;;;;;;;7.20;6.20;;;17.60;99.90;;;;;;5071313;28;20201;-72
2021/06/12 01:38:52;;;;;;;7.70;6.03;;;17.60;99.90;;;;;;5085156;28;20055;-72
2021/06/12 01:42:00;;;;;;;9.27;6.43;;;17.50;99.90;;;;;;5087802;28;20056;-72
2021/06/12 01:45:06;;;;;;;8.30;6.22;;;17.50;99.90;;;;;;5071998;28;20048;-71
2021/06/12 01:48:12;;;;;;;9.80;6.95;;;17.40;99.90;;;;;;5088051;28;20043;-71
2021/06/12 01:51:18;;;;;;;8.35;6.47;;;17.40;99.90;;;;;;5085337;28;20976;-71
2021/06/12 01:54:24;;;;;;;9.05;6.55;;;17.30;99.90;;;;;;5097171;28;20032;-71
2021/06/12 01:57:29;;;;;;;14.60;7.85;;;17.20;99.90;;;;;;5070678;28;20043;-71
2021/06/12 02:00:34;;;;;;;7.38;6.60;;;17.20;99.90;;;;;;5079384;28;20042;-71
2021/06/12 02:03:40;;;;;;;9.40;6.95;;;17.20;99.90;;;;;;5090886;28;20035;-71
2021/06/12 02:06:46;;;;;;;8.75;7.30;;;17.10;99.90;;;;;;5089675;28;20050;-72
2021/06/12 02:09:51;;;;;;;8.10;6.53;;;17.00;99.90;;;;;;5081995;28;20042;-71
2021/06/12 02:12:56;;;;;;;9.32;7.22;;;17.00;99.90;;;;;;5089747;28;20051;-72
2021/06/12 02:16:01;;;;;;;9.45;6.95;;;17.00;99.90;;;;;;5070691;28;20039;-71
2021/06/12 02:19:08;;;;;;;11.73;8.07;;;16.90;99.90;;;;;;5083863;28;20043;-72
2021/06/12 02:22:13;;;;;;;10.20;7.10;;;16.80;99.90;;;;;;5077149;28;20043;-71
2021/06/12 02:25:18;;;;;;;9.00;6.85;;;16.80;99.90;;;;;;5070083;28;20039;-71
2021/06/12 02:28:28;;;;;;;9.82;7.07;;;16.80;99.90;;;;;;5074127;28;20047;-71
2021/06/12 02:31:40;;;;;;;9.80;7.50;;;16.80;99.90;;;;;;5071359;28;20039;-71
2021/06/12 02:34:45;;;;;;;10.80;6.93;;;16.70;99.90;;;;;;5090651;28;20063;-71
2021/06/12 02:37:49;;;;;;;9.63;5.80;;;16.70;99.90;;;;;;5071771;28;20048;-71
2021/06/12 02:40:53;;;;;;;8.27;5.93;;;16.70;99.90;;;;;;5073614;28;20419;-71
2021/06/12 02:43:57;;;;;;;10.13;5.40;;;16.60;99.90;;;;;;5087417;28;20050;-71
2021/06/12 02:47:04;;;;;;;7.45;5.63;;;16.60;99.90;;;;;;5083513;28;20051;-71
2021/06/12 02:50:10;;;;;;;6.95;5.13;;;16.50;99.90;;;;;;5081080;28;20043;-71
2021/06/12 02:53:17;;;;;;;11.00;4.88;;;16.40;99.90;;;;;;5084533;28;20047;-71
2021/06/12 02:56:24;;;;;;;7.40;4.47;;;16.40;99.90;;;;;;5090002;28;20047;-71
2021/06/12 02:59:34;;;;;;;5.38;3.60;;;16.40;99.90;;;;;;5081989;28;20047;-72
2021/06/12 03:02:42;;;;;;;4.70;3.80;;;16.40;99.90;;;;;;5073061;28;20059;-71
2021/06/12 03:05:56;;;;;;;5.88;4.30;;;16.50;99.90;;;;;;5069870;28;20048;-71
2021/06/12 03:09:01;;;;;;;4.45;3.95;;;16.70;99.90;;;;;;5073043;28;20399;-72
2021/06/12 03:12:07;;;;;;;7.55;5.60;;;16.70;99.90;;;;;;5072715;28;20102;-72
2021/06/12 03:15:12;;;;;;;5.20;4.20;;;16.70;99.90;;;;;;5069885;28;20047;-72
2021/06/12 03:18:18;;;;;;;7.40;4.72;;;16.70;99.90;;;;;;5068886;28;20051;-72
2021/06/12 03:21:25;;;;;;;9.05;4.63;;;16.80;99.90;;;;;;5075196;28;20043;-71
2021/06/12 03:24:31;;;;;;;6.78;4.85;;;16.70;99.90;;;;;;5089919;28;20387;-72
2021/06/12 03:27:36;;;;;;;5.70;4.82;;;16.60;99.90;;;;;;5069775;28;20051;-72
2021/06/12 03:30:40;;;;;;;10.15;5.35;;;16.50;99.90;;;;;;5072756;28;20055;-70
2021/06/12 03:33:44;;;;;;;5.85;4.93;;;16.50;99.90;;;;;;5069300;28;20498;-71
2021/06/12 03:36:50;;;;;;;7.10;5.90;;;16.10;99.90;;;;;;5069090;28;20423;-72
2021/06/12 03:39:55;;;;;;;8.50;6.85;;;15.90;99.90;;;;;;5079762;28;20236;-72
2021/06/12 03:43:00;;;;;;;9.13;6.13;;;15.80;99.90;;;;;;5085479;28;20063;-72
2021/06/12 03:46:06;;;;;;;7.85;6.07;;;15.80;99.90;;;;;;5079657;28;20047;-71
2021/06/12 03:49:11;;;;;;;6.30;5.70;;;15.80;99.90;;;;;;5088890;28;20051;-71
2021/06/12 03:52:15;;;;;;;10.93;6.43;;;15.70;99.90;;;;;;5080960;28;20047;-71
2021/06/12 03:55:20;;;;;;;7.70;6.47;;;15.60;99.90;;;;;;5069356;28;20051;-71
2021/06/12 03:58:25;;;;;;;6.80;6.03;;;15.60;99.90;;;;;;5085104;28;20407;-71
2021/06/12 04:01:30;;;;;;;11.73;7.18;;;15.40;99.90;;;;;;5072396;28;20040;-71
2021/06/12 04:04:34;;;;;;;12.00;6.80;;;15.30;99.90;;;;;;5069358;28;20510;-71
2021/06/12 04:07:39;;;;;;;13.00;7.97;;;15.30;99.90;;;;;;5086742;28;20039;-71
2021/06/12 04:10:43;;;;;;;13.85;8.25;;;15.40;99.90;;;;;;5080590;28;20075;-72
2021/06/12 04:13:47;;;;;;;10.80;8.23;;;15.40;99.90;;;;;;5080310;28;20418;-71
2021/06/12 04:16:51;;;;;;;12.10;8.77;;;15.40;99.90;;;;;;5068906;28;20115;-71
2021/06/12 04:19:56;;;;;;;12.68;8.38;;;15.40;99.90;;;;;;5076954;28;20517;-71
2021/06/12 04:23:00;;;;;;;10.65;8.00;;;15.40;99.90;;;;;;5087369;28;20047;-71
2021/06/12 04:26:04;;;;;;;10.98;7.38;;;15.40;99.90;;;;;;5068645;28;20039;-71
2021/06/12 04:29:08;;;;;;;11.57;7.63;;;15.90;99.90;;;;;;5082260;28;20043;-70
2021/06/12 04:32:12;;;;;;;8.20;6.53;;;17.10;99.90;;;;;;5091683;28;20054;-71
2021/06/12 04:35:18;;;;;;;7.25;5.72;;;18.90;99.90;;;;;;5090503;28;20033;-71
2021/06/12 04:38:22;;;;;;;9.98;5.68;;;20.50;99.90;;;;;;5088785;28;20047;-71
2021/06/12 04:41:25;;;;;;;11.73;5.70;;;21.70;99.90;;;;;;5088172;28;20497;-72
2021/06/12 04:44:29;;;;;;;8.88;4.97;;;22.80;99.90;;;;;;5090928;28;20387;-72
2021/06/12 04:47:34;;;;;;;6.53;4.88;;;23.70;99.90;;;;;;5087926;28;20051;-71
2021/06/12 04:50:40;;;;;;;6.40;4.55;;;24.10;99.90;;;;;;5085790;28;20118;-71
2021/06/12 04:53:44;;;;;;;7.82;4.78;;;24.90;99.90;;;;;;5089879;28;20051;-72
2021/06/12 04:56:48;;;;;;;8.45;4.68;;;25.70;99.90;;;;;;5089601;28;20043;-72
2021/06/12 04:59:52;;;;;;;6.90;4.25;;;26.30;99.90;;;;;;5086991;28;20047;-71
2021/06/12 05:02:56;;;;;;;6.10;5.20;;;25.00;99.90;;;;;;5092764;28;20501;-71
2021/06/12 05:06:01;;;;;;;9.40;5.00;;;25.40;99.90;;;;;;5074618;28;20050;-71
2021/06/12 05:09:05;;;;;;;8.32;4.90;;;25.50;99.90;;;;;;5078188;28;20059;-71
2021/06/12 05:12:10;;;;;;;13.45;5.13;;;25.40;99.90;;;;;;5071514;28;20043;-72
2021/06/12 05:15:15;;;;;;;7.70;5.65;;;24.50;99.90;;;;;;5092585;28;20415;-72
2021/06/12 05:18:21;;;;;;;6.25;5.07;;;24.90;99.90;;;;;;5087382;28;20043;-71
2021/06/12 05:21:27;;;;;;;9.55;5.72;;;25.80;99.90;;;;;;5100695;28;20491;-72
2021/06/12 05:24:31;;;;;;;8.40;5.38;;;25.00;99.90;;;;;;5075695;28;20490;-72
2021/06/12 05:27:35;;;;;;;8.82;5.97;;;24.80;99.90;;;;;;5084479;28;20383;-72
2021/06/12 05:30:40;;;;;;;6.55;5.07;;;25.10;99.90;;;;;;5087289;28;20039;-72
2021/06/12 05:33:45;;;;;;;7.85;5.18;;;25.20;99.90;;;;;;5090435;28;20051;-72
2021/06/12 05:36:50;;;;;;;6.20;5.03;;;25.50;99.90;;;;;;5073438;28;20118;-72
2021/06/12 05:39:54;;;;;;;7.85;5.20;;;26.20;99.90;;;;;;5083812;28;20068;-70
2021/06/12 05:42:59;;;;;;;9.07;4.78;;;26.70;99.90;;;;;;5085514;28;20039;-72
2021/06/12 05:46:03;;;;;;;7.50;5.20;;;26.00;99.60;;;;;;5087625;28;20039;-72
2021/06/12 05:49:08;;;;;;;7.93;5.10;;;27.20;99.90;;;;;;5089168;28;20037;-72
2021/06/12 05:52:13;;;;;;;8.30;6.03;;;27.00;99.70;;;;;;5089243;28;20039;-71
2021/06/12 05:55:17;;;;;;;6.93;6.22;;;24.80;99.90;;;;;;5089900;28;20039;-71
2021/06/12 05:58:23;;;;;;;9.98;5.35;;;24.00;99.90;;;;;;5085623;28;20039;-71
2021/06/12 06:01:28;;;;;;;7.43;6.00;;;24.80;99.90;;;;;;5087433;28;20391;-71
2021/06/12 06:04:34;;;;;;;9.10;5.72;;;25.10;99.90;;;;;;5052966;28;20517;-71
2021/06/12 06:07:38;;;;;;;8.20;5.50;;;24.90;99.90;;;;;;5081032;28;20043;-71
2021/06/12 06:10:42;;;;;;;8.57;4.90;;;26.10;99.90;;;;;;5085516;28;20055;-71
2021/06/12 06:13:47;;;;;;;7.47;6.07;;;27.20;99.90;;;;;;5089242;28;20055;-72
2021/06/12 06:16:52;;;;;;;6.07;5.13;;;28.20;99.30;;;;;;5075448;28;20055;-72
2021/06/12 06:19:56;;;;;;;8.82;5.20;;;27.70;98.70;;;;;;5086487;28;20382;-69
2021/06/12 06:23:00;;;;;;;7.80;4.53;;;27.40;99.00;;;;;;5088829;28;20493;-70
2021/06/12 06:26:04;;;;;;;6.43;4.93;;;26.30;99.10;;;;;;5086118;28;20389;-70
2021/06/12 06:29:08;;;;;;;11.07;4.82;;;26.10;99.90;;;;;;5090151;28;20522;-70
2021/06/12 06:32:12;;;;;;;7.50;4.30;;;25.20;99.90;;;;;;5088863;28;20693;-70
2021/06/12 06:35:30;;;;;;;5.78;5.00;;;25.40;99.90;;;;;;5088486;28;20039;-70
2021/06/12 06:38:34;;;;;;;6.00;4.88;;;26.00;99.90;;;;;;5075989;28;20035;-70
2021/06/12 06:41:38;;;;;;;8.60;4.80;;;26.30;99.90;;;;;;5090167;28;20059;-71
2021/06/12 06:44:42;;;;;;;6.57;4.40;;;27.40;98.50;;;;;;5088833;28;20395;-70
2021/06/12 06:47:48;;;;;;;4.78;4.28;;;28.20;96.90;;;;;;5067133;28;20059;-71
2021/06/12 06:50:52;;;;;;;6.72;4.38;;;28.60;96.20;;;;;;5088196;28;20051;-71
2021/06/12 06:53:57;;;;;;;6.80;5.30;;;28.30;95.10;;;;;;5089364;28;20039;-71
2021/06/12 06:57:01;;;;;;;9.18;6.55;;;29.30;94.70;;;;;;5079882;28;20043;-71
2021/06/12 07:00:06;;;;;;;6.93;5.18;;;29.40;94.50;;;;;;5073736;28;20063;-71
2021/06/12 07:03:11;;;;;;;16.67;5.25;;;29.60;95.00;;;;;;5088028;28;20043;-71
2021/06/12 07:06:15;;;;;;;6.05;4.72;;;28.70;95.60;;;;;;5073509;28;20119;-71
2021/06/12 07:09:20;;;;;;;7.13;4.32;;;28.20;96.30;;;;;;5081561;28;20391;-71
2021/06/12 07:12:24;;;;;;;6.63;5.10;;;29.80;95.20;;;;;;5085513;28;20047;-72
2021/06/12 07:15:29;;;;;;;7.68;4.05;;;30.10;94.40;;;;;;5083882;28;20066;-71
2021/06/12 07:18:34;;;;;;;6.53;3.72;;;31.30;93.80;;;;;;5080204;28;20260;-70
2021/06/12 07:21:38;;;;;;;4.47;3.70;;;32.00;92.80;;;;;;5098422;28;20043;-71
2021/06/12 07:24:43;;;;;;;4.15;3.75;;;31.40;92.80;;;;;;5088160;28;20047;-71
2021/06/12 07:27:47;;;;;;;7.07;4.38;;;30.90;92.10;;;;;;5085865;28;20035;-70
2021/06/12 07:30:52;;;;;;;4.60;3.97;;;29.70;92.60;;;;;;5088066;28;20513;-70
2021/06/12 07:33:57;;;;;;;7.30;3.83;;;30.60;92.80;;;;;;5088154;28;20039;-70
2021/06/12 07:37:00;;;;;;;6.97;3.83;;;30.00;93.70;;;;;;5085553;28;20493;-70
2021/06/12 07:40:05;;;;;;;9.70;4.10;;;30.00;94.00;;;;;;5085278;28;20071;-70
2021/06/12 07:43:09;;;;;;;3.95;3.40;;;29.70;92.70;;;;;;5087022;28;20043;-70
2021/06/12 07:46:15;;;;;;;4.63;3.80;;;30.40;93.00;;;;;;5086781;28;20051;-71
2021/06/12 07:49:19;;;;;;;4.05;3.30;;;30.60;92.40;;;;;;5078828;28;20055;-72
2021/06/12 07:52:23;;;;;;;5.68;3.38;;;32.20;92.20;;;;;;5083458;28;20047;-71
2021/06/12 07:55:27;;;;;;;6.30;3.55;;;33.30;90.50;;;;;;5070915;28;20502;-70
2021/06/12 07:58:31;;;;;;;6.68;3.45;;;31.30;91.70;;;;;;5080906;28;20031;-72
2021/06/12 08:01:37;;;;;;;6.18;3.55;;;32.10;90.90;;;;;;5076823;28;20043;-70
2021/06/12 08:04:42;;;;;;;10.50;3.65;;;31.80;89.20;;;;;;5081663;28;20046;-70
2021/06/12 08:07:46;;;;;;;8.35;3.58;;;33.50;89.20;;;;;;5088704;28;20129;-71
2021/06/12 08:10:51;;;;;;;6.63;3.30;;;33.10;88.70;;;;;;5085331;28;20662;-72
2021/06/12 08:13:55;;;;;;;5.43;3.28;;;34.30;85.20;;;;;;5090839;28;20055;-71
2021/06/12 08:16:59;;;;;;;5.32;3.22;;;34.30;86.60;;;;;;5086460;28;20039;-71
2021/06/12 08:20:05;;;;;;;5.90;2.72;;;35.80;83.20;;;;;;5092038;28;20043;-71
2021/06/12 08:23:11;;;;;;;5.50;2.97;;;36.60;79.70;;;;;;5089367;28;20039;-71
2021/06/12 08:26:15;;;;;;;2.83;2.50;;;36.60;77.30;;;;;;5087200;28;20047;-70
2021/06/12 08:29:19;;;;;;;3.97;2.50;;;36.10;74.10;;;;;;5086393;28;20043;-71
2021/06/12 08:32:24;;;;;;;5.28;2.85;;;34.00;77.70;;;;;;5089155;28;20059;-71
2021/06/12 08:35:28;;;;;;;6.28;2.60;;;36.00;76.50;;;;;;5085267;28;20525;-72
2021/06/12 08:38:32;;;;;;;3.55;2.72;;;35.50;77.20;;;;;;5086989;28;20035;-71
2021/06/12 08:41:36;;;;;;;3.25;2.95;;;35.10;73.90;;;;;;5087199;28;20051;-70
2021/06/12 08:44:41;;;;;;;5.45;2.90;;;32.30;78.30;;;;;;5080000;28;20036;-71
2021/06/12 08:47:46;;;;;;;4.68;3.10;;;33.50;79.40;;;;;;5088013;28;20754;-71
2021/06/12 08:50:50;;;;;;;3.65;2.10;;;34.40;78.60;;;;;;5089225;28;20047;-71
2021/06/12 08:53:54;;;;;;;4.20;2.13;;;36.70;72.90;;;;;;5085990;28;20060;-70
2021/06/12 08:56:59;;;;;;;2.60;2.22;;;37.40;74.20;;;;;;5086672;28;20066;-70
2021/06/12 09:00:05;;;;;;;5.63;2.30;;;37.90;72.30;;;;;;5086230;28;20051;-70
2021/06/12 09:03:15;;;;;;;5.00;2.38;;;34.90;71.60;;;;;;5084742;28;20039;-70
2021/06/12 09:06:20;;;;;;;2.22;2.03;;;35.40;73.40;;;;;;5087857;28;20035;-70
2021/06/12 09:09:41;;;;;;;4.85;2.00;;;35.30;73.30;;;;;;5084369;28;20039;-70
2021/06/12 09:12:48;;;;;;;2.95;2.20;;;37.90;70.10;;;;;;5084766;28;20043;-71
2021/06/12 09:15:57;;;;;;;3.25;2.25;;;38.90;70.70;;;;;;5087076;28;20063;-70
2021/06/12 09:19:14;;;;;;;3.85;1.95;;;39.60;68.10;;;;;;5089747;28;20047;-70
2021/06/12 09:22:27;;;;;;;2.20;2.00;;;38.20;66.50;;;;;;5085085;28;20040;-70
2021/06/12 09:25:40;;;;;;;3.20;1.95;;;37.00;68.80;;;;;;5086643;28;20047;-71
2021/06/12 09:28:55;;;;;;;3.53;2.42;;;38.50;69.10;;;;;;5084785;28;20058;-70
2021/06/12 09:31:59;;;;;;;3.10;2.30;;;37.00;68.40;;;;;;5088645;28;20046;-71
2021/06/12 09:35:06;;;;;;;2.78;2.10;;;39.30;68.50;;;;;;5087424;28;20114;-70
2021/06/12 09:38:29;;;;;;;2.05;1.73;;;41.40;65.30;;;;;;5084688;28;20035;-71
2021/06/12 09:41:33;;;;;;;3.08;2.13;;;41.40;62.40;;;;;;5086879;28;20035;-71
2021/06/12 09:44:44;;;;;;;3.08;1.50;;;40.10;62.20;;;;;;5081528;28;20055;-72
2021/06/12 09:47:49;;;;;;;2.90;2.00;;;40.70;63.40;;;;;;5081828;28;20051;-70
2021/06/12 09:51:19;;;;;;;2.08;1.88;;;41.70;61.50;;;;;;5083717;28;20075;-70
2021/06/12 09:54:34;;;;;;;3.95;1.85;;;42.80;60.20;;;;;;5085251;28;20051;-71
2021/06/12 09:57:50;;;;;;;3.45;1.65;;;42.80;59.00;;;;;;5078309;28;20528;-71
2021/06/12 10:01:10;;;;;;;1.95;1.73;;;43.40;58.30;;;;;;5085799;28;20055;-71
2021/06/12 10:04:16;;;;;;;3.83;1.65;;;41.30;59.50;;;;;;5079943;28;20056;-70
2021/06/12 10:07:23;;;;;;;2.38;1.70;;;42.00;58.20;;;;;;5083634;28;20046;-71
2021/06/12 10:10:27;;;;;;;2.72;1.50;;;41.60;58.80;;;;;;5087876;28;20035;-71
2021/06/12 10:13:33;;;;;;;1.95;1.75;;;42.30;59.60;;;;;;5081833;28;20398;-67
2021/06/12 10:16:42;;;;;;;3.03;1.83;;;38.90;60.70;;;;;;5089418;28;20043;-68
2021/06/12 10:19:51;;;;;;;4.82;1.83;;;40.90;60.80;;;;;;5088559;28;20051;-68
2021/06/12 10:22:56;;;;;;;4.30;2.13;;;40.30;61.10;;;;;;5086020;28;20066;-68
2021/06/12 10:26:00;;;;;;;4.25;2.05;;;39.80;62.20;;;;;;5088570;28;20094;-67
2021/06/12 10:29:05;;;;;;;2.63;1.98;;;37.90;62.10;;;;;;5085702;28;20489;-68
2021/06/12 10:32:11;;;;;;;2.22;1.92;;;38.20;62.80;;;;;;5071776;28;20043;-68
2021/06/12 10:35:18;;;;;;;2.45;1.85;;;40.80;62.20;;;;;;5088187;28;20039;-68
2021/06/12 10:38:30;;;;;;;3.45;1.92;;;40.30;61.70;;;;;;5085961;28;20050;-68
2021/06/12 10:41:35;;;;;;;1.90;1.80;;;36.50;63.50;;;;;;5073081;28;20059;-69
2021/06/12 10:44:46;;;;;;;2.17;1.95;;;39.40;63.10;;;;;;5074468;28;20047;-68
2021/06/12 10:47:50;;;;;;;2.42;1.80;;;40.70;61.30;;;;;;5079056;28;20047;-69
2021/06/12 10:50:55;;;;;;;2.03;1.73;;;40.50;59.20;;;;;;5088830;28;20055;-68
2021/06/12 10:54:11;;;;;;;2.60;1.85;;;42.30;60.40;;;;;;5080432;28;20043;-68
2021/06/12 10:57:17;;;;;;;1.70;1.50;;;43.50;58.80;;;;;;5087716;28;20533;-69
2021/06/12 11:00:23;;;;;;;2.25;1.65;;;41.90;59.90;;;;;;5080847;28;20043;-70
2021/06/12 11:03:56;;;;;;;4.13;1.50;;;43.50;58.70;;;;;;5086268;28;20345;-69
2021/06/12 11:07:23;;;;;;;2.05;1.52;;;42.80;56.10;;;;;;5083526;28;20035;-69
2021/06/12 11:10:28;;;;;;;2.28;1.42;;;41.30;57.10;;;;;;5080100;28;20193;-69
2021/06/12 11:13:35;;;;;;;1.95;1.75;;;42.40;58.50;;;;;;5088502;28;20051;-69
2021/06/12 11:16:39;;;;;;;1.92;1.60;;;43.30;58.00;;;;;;5082656;28;20043;-68
2021/06/12 11:19:58;;;;;;;2.30;1.92;;;40.70;57.00;;;;;;5089001;28;20055;-69
2021/06/12 11:23:04;;;;;;;3.20;1.83;;;39.10;58.30;;;;;;5089378;28;20047;-67
2021/06/12 11:26:10;;;;;;;2.13;1.90;;;34.50;61.00;;;;;;5088737;28;20395;-68
2021/06/12 11:29:14;;;;;;;4.15;1.85;;;34.90;65.00;;;;;;5078338;28;20051;-69
2021/06/12 11:32:28;;;;;;;3.97;1.88;;;35.20;63.50;;;;;;5077639;28;20047;-71
2021/06/12 11:35:49;;;;;;;3.05;1.77;;;36.80;61.50;;;;;;5079015;28;20510;-70
2021/06/12 11:38:58;;;;;;;3.55;2.03;;;39.00;58.70;;;;;;5078426;28;20047;-71
2021/06/12 11:42:02;;;;;;;3.95;1.80;;;39.50;60.70;;;;;;5086613;28;20059;-71
2021/06/12 11:45:15;;;;;;;2.95;1.80;;;40.20;59.50;;;;;;5069189;28;20048;-71
2021/06/12 11:48:22;;;;;;;1.90;1.70;;;41.40;58.80;;;;;;5084505;28;20115;-71
2021/06/12 11:51:33;;;;;;;4.07;1.80;;;40.20;57.60;;;;;;5087278;28;20043;-71
2021/06/12 11:54:37;;;;;;;2.10;1.90;;;40.70;57.60;;;;;;5082419;28;20047;-71
2021/06/12 11:57:44;;;;;;;2.10;1.90;;;40.70;57.60;;;;;;5086979;28;20052;-70
2021/06/12 12:00:50;;;;;;;2.03;1.70;;;38.10;59.70;;;;;;5083915;28;20422;-70
2021/06/12 12:03:54;;;;;;;4.60;1.83;;;39.00;60.30;;;;;;5086855;28;20044;-70
2021/06/12 12:07:00;;;;;;;2.53;2.03;;;39.50;59.40;;;;;;5085935;28;20044;-69
2021/06/12 12:10:05;;;;;;;3.13;2.22;;;39.80;60.60;;;;;;5085150;28;20043;-69
2021/06/12 12:13:34;;;;;;;1.77;1.67;;;39.40;59.30;;;;;;5087057;28;20031;-70
2021/06/12 12:16:39;;;;;;;2.03;1.83;;;40.00;60.00;;;;;;5087033;28;20391;-71
2021/06/12 12:19:43;;;;;;;2.67;1.80;;;40.60;57.60;;;;;;5085600;28;20399;-70
2021/06/12 12:22:49;;;;;;;5.18;2.00;;;39.90;57.50;;;;;;5085356;28;20050;-70
2021/06/12 12:26:17;;;;;;;3.08;1.90;;;37.40;56.90;;;;;;5086057;28;20387;-70
2021/06/12 12:29:25;;;;;;;2.75;1.83;;;37.60;61.80;;;;;;5086783;28;20047;-71
2021/06/12 12:32:30;;;;;;;2.10;1.90;;;38.60;59.30;;;;;;5083854;28;21591;-71
2021/06/12 12:35:34;;;;;;;1.95;1.83;;;39.60;58.60;;;;;;5088003;28;20045;-71
2021/06/12 12:38:40;;;;;;;2.00;1.80;;;40.10;58.80;;;;;;5087294;28;20518;-71
2021/06/12 12:41:55;;;;;;;2.35;1.80;;;40.90;57.30;;;;;;5084117;28;20063;-71
2021/06/12 12:45:00;;;;;;;3.63;1.73;;;40.50;57.30;;;;;;5083825;28;20051;-71
2021/06/12 12:48:04;;;;;;;4.50;1.73;;;40.90;57.70;;;;;;5087216;28;20055;-71
2021/06/12 12:51:09;;;;;;;4.55;1.80;;;41.10;57.00;;;;;;5088608;28;20047;-70
2021/06/12 12:54:14;;;;;;;2.95;1.70;;;39.40;55.80;;;;;;5088790;28;20145;-69
2021/06/12 12:57:18;;;;;;;2.75;1.60;;;39.90;57.30;;;;;;5091459;28;20051;-70
2021/06/12 13:00:33;;;;;;;2.35;1.80;;;39.90;56.30;;;;;;5089982;28;20285;-70
2021/06/12 13:03:50;;;;;;;2.65;2.17;;;38.60;57.60;;;;;;5086621;28;20056;-69
2021/06/12 13:07:06;;;;;;;4.60;2.10;;;35.20;61.20;;;;;;5092389;28;20047;-71
2021/06/12 13:10:15;;;;;;;3.40;2.03;;;35.80;63.00;;;;;;5089942;28;20043;-71
2021/06/12 13:13:21;;;;;;;2.50;2.30;;;35.30;63.10;;;;;;5075399;28;20047;-71
2021/06/12 13:16:26;;;;;;;2.58;2.25;;;34.00;62.90;;;;;;5077207;28;20047;-72
2021/06/12 13:19:39;;;;;;;2.40;2.20;;;34.70;63.80;;;;;;5091867;28;20043;-72
2021/06/12 13:22:45;;;;;;;2.60;2.25;;;35.80;62.80;;;;;;5086966;28;20470;-72
2021/06/12 13:26:20;;;;;;;2.20;2.00;;;36.60;61.80;;;;;;5090226;28;20055;-73
2021/06/12 13:29:28;;;;;;;11.38;2.22;;;37.70;60.60;;;;;;5091979;28;20051;-72
2021/06/12 13:32:32;;;;;;;4.15;1.88;;;38.30;59.50;;;;;;5072287;28;20051;-73
2021/06/12 13:35:46;;;;;;;3.60;2.20;;;38.80;57.70;;;;;;5075580;28;20048;-72
2021/06/12 13:38:55;;;;;;;2.17;1.98;;;39.10;56.70;;;;;;5073954;28;20051;-71
2021/06/12 13:42:10;;;;;;;1.70;1.60;;;39.30;55.70;;;;;;5070686;28;20040;-71
2021/06/12 13:45:16;;;;;;;4.15;2.10;;;38.80;55.50;;;;;;5075748;28;20059;-71
2021/06/12 13:48:29;;;;;;;1.90;1.80;;;35.90;57.60;;;;;;5074995;28;20047;-71
2021/06/12 13:51:34;;;;;;;3.80;2.10;;;36.10;62.60;;;;;;5090973;28;20047;-72
2021/06/12 13:54:39;;;;;;;3.80;2.10;;;36.70;61.40;;;;;;5072246;28;20051;-72
2021/06/12 13:57:43;;;;;;;4.63;2.20;;;36.80;60.40;;;;;;5081441;28;20051;-71
2021/06/12 14:00:47;;;;;;;5.53;1.88;;;36.70;62.70;;;;;;5089782;28;20047;-70
2021/06/12 14:03:51;;;;;;;3.70;2.00;;;36.60;62.40;;;;;;5070915;28;20403;-71
2021/06/12 14:06:55;;;;;;;3.13;1.83;;;36.40;62.50;;;;;;5083563;28;20058;-70
2021/06/12 14:10:00;;;;;;;2.28;1.88;;;36.30;61.80;;;;;;5088547;28;20058;-71
2021/06/12 14:13:05;;;;;;;2.20;2.00;;;36.40;61.60;;;;;;5070847;28;20035;-71
2021/06/12 14:16:10;;;;;;;3.53;2.05;;;36.70;62.10;;;;;;5078461;28;20043;-71
2021/06/12 14:19:15;;;;;;;2.38;2.08;;;36.70;61.80;;;;;;5074240;28;20039;-70
2021/06/12 14:22:20;;;;;;;2.08;1.88;;;36.60;61.60;;;;;;5083646;28;20418;-71
2021/06/12 14:25:26;;;;;;;8.35;1.90;;;36.40;58.40;;;;;;5071382;28;20051;-67
2021/06/12 14:28:31;;;;;;;2.38;1.80;;;36.00;60.00;;;;;;5069340;28;20043;-71
2021/06/12 14:31:36;;;;;;;2.22;1.73;;;36.10;58.70;;;;;;5069690;28;20055;-70
2021/06/12 14:34:40;;;;;;;1.90;1.52;;;36.20;58.60;;;;;;5086566;28;20051;-70
2021/06/12 14:37:45;;;;;;;2.42;1.77;;;36.20;60.60;;;;;;5084244;28;20044;-70
2021/06/12 14:40:49;;;;;;;2.00;1.73;;;35.90;60.30;;;;;;5069779;28;20039;-72
2021/06/12 14:43:55;;;;;;;2.10;1.50;;;35.40;61.30;;;;;;5069877;28;20068;-71
2021/06/12 14:46:59;;;;;;;6.65;2.03;;;35.40;61.30;;;;;;5074537;28;20063;-69
2021/06/12 14:50:07;;;;;;;2.85;1.70;;;35.30;62.10;;;;;;5069755;28;20387;-71
2021/06/12 14:53:11;;;;;;;2.17;1.70;;;35.30;61.20;;;;;;5088252;28;20055;-72
2021/06/12 14:56:16;;;;;;;1.60;1.50;;;35.50;60.30;;;;;;5084846;28;20047;-71
2021/06/12 14:59:21;;;;;;;3.72;1.73;;;35.60;61.10;;;;;;5090360;28;20047;-72
2021/06/12 15:02:26;;;;;;;3.22;1.80;;;35.70;61.50;;;;;;5090204;28;20039;-71
2021/06/12 15:05:31;;;;;;;1.90;1.73;;;35.70;60.80;;;;;;5076919;28;20047;-70
2021/06/12 15:08:36;;;;;;;1.77;1.58;;;35.50;63.00;;;;;;5077006;28;20039;-70
2021/06/12 15:11:41;;;;;;;2.53;1.83;;;35.40;61.40;;;;;;5089886;28;20145;-70
2021/06/12 15:14:46;;;;;;;3.67;2.20;;;35.00;62.50;;;;;;5088400;28;20058;-67
2021/06/12 15:17:50;;;;;;;2.88;2.10;;;34.60;61.80;;;;;;5074750;28;20398;-68
2021/06/12 15:20:55;;;;;;;4.65;2.53;;;34.00;63.70;;;;;;5082635;28;20498;-68
2021/06/12 15:24:00;;;;;;;2.60;2.10;;;33.60;63.80;;;;;;5089051;28;20395;-69
2021/06/12 15:27:05;;;;;;;2.80;2.25;;;33.60;63.60;;;;;;5084321;28;20042;-69
2021/06/12 15:30:09;;;;;;;7.13;2.15;;;33.50;64.50;;;;;;5089290;28;20035;-69
2021/06/12 15:33:15;;;;;;;3.22;2.22;;;33.40;63.50;;;;;;5069835;28;20040;-70
2021/06/12 15:36:19;;;;;;;4.38;2.55;;;33.10;64.60;;;;;;5076360;28;20112;-69
2021/06/12 15:39:24;;;;;;;3.42;2.35;;;33.00;65.40;;;;;;5089154;28;20055;-69
2021/06/12 15:42:28;;;;;;;2.47;2.28;;;32.80;65.80;;;;;;5069251;28;20395;-71
2021/06/12 15:45:33;;;;;;;2.70;2.42;;;32.70;65.40;;;;;;5089027;28;20039;-69
2021/06/12 15:48:38;;;;;;;2.50;2.30;;;32.70;65.10;;;;;;5090152;28;20055;-69
2021/06/12 15:51:42;;;;;;;3.00;2.40;;;32.70;67.00;;;;;;5090277;28;20043;-68
2021/06/12 15:54:46;;;;;;;4.20;2.28;;;32.50;65.80;;;;;;5073113;28;20501;-68
2021/06/12 15:57:50;;;;;;;4.68;2.50;;;32.50;67.60;;;;;;5084719;28;20383;-69
2021/06/12 16:00:54;;;;;;;6.47;2.38;;;32.40;65.80;;;;;;5080387;28;20391;-69
2021/06/12 16:03:58;;;;;;;4.25;2.92;;;32.30;67.00;;;;;;5088870;28;20047;-70
2021/06/12 16:07:03;;;;;;;3.72;2.58;;;32.10;67.70;;;;;;5082224;28;20044;-69
2021/06/12 16:10:10;;;;;;;6.28;2.65;;;32.00;67.40;;;;;;5069847;28;20043;-69